Ensign, Kansas
Current Conditions -  °F | °C
As of 9:52 PM on Friday 24 Oct 2014 (Local Time) from KDDC Reporting Station
Clear Clear  
Wind Chill: 68°   Ceiling: Unl
Heat Index: 68°   Visibility: 10mi
Dew Point: 53°   Wind: 10mph
Humidity: 59%   Direction: 170°S
Pressure: 30.07"   Gusts: NA
Location:  37.65°N, 100.23°W
Report Text: KDDC 250252Z AUTO 17009KT 10SM CLR 20/12 A3007 RMK AO2 SLP163 T02000117 51013
Loading
Personal Weather Stations






























Interactive Weather Map
Tropical Storm Tracking
New forecast layout! Learn more

10-Day Weather Forecast

Advertisements
Track Severe Weather on mobile